createdAt,value
2019-04-04T00:01:18.374Z,9.20
2019-04-04T00:03:51.784Z,8.70
2019-04-04T00:06:23.300Z,8.20
2019-04-04T00:08:55.379Z,9.57
2019-04-04T00:11:26.440Z,8.90
2019-04-04T00:13:57.452Z,8.67
2019-04-04T00:16:28.422Z,8.83
2019-04-04T00:18:59.643Z,8.40
2019-04-04T00:21:32.036Z,8.63
2019-04-04T00:24:03.589Z,8.70
2019-04-04T00:26:34.626Z,8.87
2019-04-04T00:29:05.799Z,8.60
2019-04-04T00:31:36.872Z,9.53
2019-04-04T00:34:07.880Z,9.30
2019-04-04T00:36:39.097Z,8.30
2019-04-04T00:39:10.127Z,9.03
2019-04-04T00:41:41.195Z,7.67
2019-04-04T00:44:12.336Z,8.60
2019-04-04T00:46:43.402Z,9.20
2019-04-04T00:49:14.518Z,9.77
2019-04-04T00:51:45.730Z,8.87
2019-04-04T00:54:16.731Z,8.77
2019-04-04T00:56:48.775Z,8.30
2019-04-04T00:59:22.761Z,8.43
2019-04-04T01:01:52.702Z,8.30
2019-04-04T01:04:24.117Z,8.70
2019-04-04T01:06:55.101Z,8.03
2019-04-04T01:09:26.149Z,7.60
2019-04-04T01:11:57.150Z,8.00
2019-04-04T01:14:29.225Z,7.73
2019-04-04T01:17:02.057Z,7.97
2019-04-04T01:19:33.577Z,7.67
2019-04-04T01:22:04.632Z,8.73
2019-04-04T01:24:36.067Z,8.60
2019-04-04T01:27:07.133Z,8.60
2019-04-04T01:29:39.017Z,8.90
2019-04-04T01:32:10.842Z,8.47
2019-04-04T01:34:41.914Z,8.33
2019-04-04T01:37:12.893Z,7.93
2019-04-04T01:39:43.982Z,8.93
2019-04-04T01:42:15.057Z,8.67
2019-04-04T01:44:46.093Z,7.40
2019-04-04T01:47:17.643Z,7.23
2019-04-04T01:49:49.926Z,8.90
2019-04-04T01:52:21.505Z,9.00
2019-04-04T01:54:52.510Z,8.13
2019-04-04T01:57:23.597Z,8.07
2019-04-04T01:59:54.845Z,8.20
2019-04-04T02:02:25.970Z,8.80
2019-04-04T02:04:57.033Z,8.80
2019-04-04T02:07:29.845Z,9.37
2019-04-04T02:10:00.776Z,8.10
2019-04-04T02:12:32.141Z,8.60
2019-04-04T02:15:03.209Z,9.27
2019-04-04T02:17:34.197Z,9.20
2019-04-04T02:20:05.685Z,8.77
2019-04-04T02:22:36.649Z,8.57
2019-04-04T02:25:08.088Z,10.43
2019-04-04T02:27:39.209Z,9.87
2019-04-04T02:30:14.859Z,8.73
2019-04-04T02:32:43.380Z,9.27
2019-04-04T02:35:14.928Z,9.07
2019-04-04T02:37:45.989Z,8.87
2019-04-04T02:40:17.341Z,8.87
2019-04-04T02:42:48.283Z,8.70
2019-04-04T02:45:19.399Z,9.73
2019-04-04T02:47:51.433Z,9.10
2019-04-04T02:50:22.531Z,9.67
2019-04-04T02:52:53.534Z,9.10
2019-04-04T02:55:24.679Z,9.63
2019-04-04T02:57:55.752Z,10.37
2019-04-04T03:00:27.834Z,10.30
2019-04-04T03:02:59.213Z,11.53
2019-04-04T03:05:30.573Z,12.10
2019-04-04T03:08:04.269Z,11.33
2019-04-04T03:10:34.730Z,11.43
2019-04-04T03:13:05.874Z,11.87
2019-04-04T03:15:41.001Z,12.33
2019-04-04T03:18:10.108Z,9.90
2019-04-04T03:20:41.192Z,11.77
2019-04-04T03:23:12.175Z,11.27
2019-04-04T03:25:44.634Z,12.37
2019-04-04T03:28:15.873Z,12.80
2019-04-04T03:30:52.546Z,12.67
2019-04-04T03:33:19.797Z,13.30
2019-04-04T03:35:50.803Z,12.77
2019-04-04T03:38:21.814Z,13.20
2019-04-04T03:40:57.289Z,12.10
2019-04-04T03:43:25.617Z,12.60
2019-04-04T03:46:00.338Z,14.03
2019-04-04T03:48:29.356Z,13.73
2019-04-04T03:51:03.638Z,13.60
2019-04-04T03:53:33.065Z,13.07
2019-04-04T03:56:04.345Z,14.17
2019-04-04T03:58:35.408Z,12.27
2019-04-04T04:01:06.459Z,13.40
2019-04-04T04:03:37.535Z,15.13
2019-04-04T04:06:09.745Z,16.30
2019-04-04T04:08:40.919Z,16.43
2019-04-04T04:11:12.007Z,17.70
2019-04-04T04:13:42.989Z,17.47
2019-04-04T04:16:13.983Z,16.47
2019-04-04T04:18:45.039Z,15.87
2019-04-04T04:21:16.076Z,16.87
2019-04-04T04:23:49.882Z,17.67
2019-04-04T04:26:19.897Z,16.20
2019-04-04T04:28:53.214Z,17.43
2019-04-04T04:31:24.754Z,14.93
2019-04-04T04:33:55.780Z,14.47
2019-04-04T04:36:27.002Z,15.40
2019-04-04T04:39:00.008Z,15.50
2019-04-04T04:41:30.768Z,16.17
2019-04-04T04:44:02.890Z,15.30
2019-04-04T04:46:35.722Z,15.80
2019-04-04T04:49:06.817Z,17.70
2019-04-04T04:51:37.894Z,14.33
2019-04-04T04:54:08.897Z,17.07
2019-04-04T04:56:39.900Z,16.37
2019-04-04T04:59:12.879Z,15.43
2019-04-04T05:01:43.662Z,14.47
2019-04-04T05:04:14.641Z,14.57
2019-04-04T05:06:45.831Z,16.60
2019-04-04T05:09:16.858Z,16.87
2019-04-04T05:11:50.322Z,16.50
2019-04-04T05:14:20.924Z,15.60
2019-04-04T05:16:52.049Z,17.40
2019-04-04T05:19:23.030Z,16.00
2019-04-04T05:21:55.013Z,16.73
2019-04-04T05:24:26.051Z,16.47
2019-04-04T05:26:57.106Z,17.00
2019-04-04T05:29:28.195Z,17.30
2019-04-04T05:31:59.201Z,17.17
2019-04-04T05:34:30.958Z,15.27
2019-04-04T05:37:02.026Z,15.67
2019-04-04T05:39:33.099Z,16.10
2019-04-04T05:42:04.362Z,16.97
2019-04-04T05:44:35.401Z,15.03
2019-04-04T05:47:06.684Z,17.33
2019-04-04T05:49:38.227Z,17.10
2019-04-04T05:52:09.841Z,16.87
2019-04-04T05:54:40.907Z,17.67
2019-04-04T05:57:11.987Z,17.60
2019-04-04T05:59:42.978Z,15.40
2019-04-04T06:02:14.027Z,17.77
2019-04-04T06:04:45.149Z,16.23
2019-04-04T06:07:16.583Z,15.87
2019-04-04T06:09:48.679Z,17.10
2019-04-04T06:12:19.729Z,18.10
2019-04-04T06:14:50.704Z,16.10
2019-04-04T06:17:21.731Z,15.93
2019-04-04T06:19:52.808Z,15.57
2019-04-04T06:22:23.876Z,16.37
2019-04-04T06:24:54.869Z,15.27
2019-04-04T06:27:25.968Z,14.60
2019-04-04T06:29:57.089Z,14.97
2019-04-04T06:32:29.067Z,15.00
2019-04-04T06:35:01.266Z,17.23
2019-04-04T06:37:34.270Z,15.40
2019-04-04T06:40:05.707Z,16.00
2019-04-04T06:42:37.729Z,16.13
2019-04-04T06:45:08.870Z,14.80
2019-04-04T06:47:39.940Z,17.43
2019-04-04T06:50:11.365Z,16.17
2019-04-04T06:52:42.375Z,16.97
2019-04-04T06:55:13.610Z,17.33
2019-04-04T06:57:44.685Z,17.67
2019-04-04T07:00:16.749Z,17.50
2019-04-04T07:02:47.834Z,17.93
2019-04-04T07:05:18.925Z,17.97
2019-04-04T07:07:50.096Z,16.80
2019-04-04T07:10:22.007Z,17.53
2019-04-04T07:13:09.332Z,17.50
2019-04-04T07:15:25.978Z,19.30
2019-04-04T07:17:56.987Z,16.50
2019-04-04T07:20:28.522Z,16.43
2019-04-04T07:22:59.828Z,15.63
2019-04-04T07:25:30.961Z,15.00
2019-04-04T07:28:02.019Z,14.50
2019-04-04T07:30:33.261Z,13.90
2019-04-04T07:33:04.350Z,16.50
2019-04-04T07:35:35.329Z,16.83
2019-04-04T07:38:06.317Z,15.10
2019-04-04T07:40:37.493Z,15.70
2019-04-04T07:43:08.823Z,15.23
2019-04-04T07:45:40.053Z,14.70
2019-04-04T07:48:12.320Z,15.23
2019-04-04T07:50:43.519Z,14.90
2019-04-04T07:53:14.562Z,15.80
2019-04-04T07:55:45.588Z,15.23
2019-04-04T07:58:16.564Z,14.27
2019-04-04T08:00:47.816Z,14.93
2019-04-04T08:03:18.899Z,14.60
2019-04-04T08:05:49.900Z,14.90
2019-04-04T08:08:21.440Z,14.43
2019-04-04T08:10:53.922Z,14.13
2019-04-04T08:13:24.961Z,15.57
2019-04-04T08:15:55.999Z,14.87
2019-04-04T08:18:27.147Z,13.90
2019-04-04T08:20:58.166Z,13.70
2019-04-04T08:23:29.281Z,15.90
2019-04-04T08:26:00.249Z,15.13
2019-04-04T08:28:31.416Z,14.83
2019-04-04T08:31:02.434Z,14.20
2019-04-04T08:33:33.516Z,14.00
2019-04-04T08:36:06.204Z,14.63
2019-04-04T08:38:37.623Z,13.30
2019-04-04T08:41:08.765Z,13.80
2019-04-04T08:43:39.788Z,13.33
2019-04-04T08:46:10.919Z,13.07
2019-04-04T08:48:42.018Z,13.07
2019-04-04T08:51:13.105Z,13.30
2019-04-04T08:53:44.122Z,12.20
2019-04-04T08:56:15.119Z,12.50
2019-04-04T08:58:46.165Z,13.37
2019-04-04T09:01:17.192Z,13.80
2019-04-04T09:03:48.226Z,13.80
2019-04-04T09:06:19.238Z,13.60
2019-04-04T09:08:50.245Z,13.10
2019-04-04T09:11:21.514Z,13.87
2019-04-04T09:13:52.636Z,12.20
2019-04-04T09:16:23.634Z,12.83
2019-04-04T09:18:54.649Z,12.23
2019-04-04T09:21:25.706Z,13.03
2019-04-04T09:23:56.757Z,14.00
2019-04-04T09:26:27.780Z,13.80
2019-04-04T09:28:58.945Z,14.70
2019-04-04T09:31:30.071Z,14.47
2019-04-04T09:34:01.165Z,15.83
2019-04-04T09:36:32.258Z,16.40
2019-04-04T09:39:05.780Z,15.03
2019-04-04T09:41:36.798Z,16.00
2019-04-04T09:44:07.879Z,16.27
2019-04-04T09:46:39.043Z,16.27
2019-04-04T09:49:12.843Z,16.60
2019-04-04T09:51:42.826Z,16.80
2019-04-04T09:54:13.940Z,16.23
2019-04-04T09:56:45.024Z,16.20
2019-04-04T09:59:16.158Z,17.67
2019-04-04T10:01:47.255Z,17.67
2019-04-04T10:04:18.446Z,17.17
2019-04-04T10:06:49.464Z,17.53
2019-04-04T10:09:20.653Z,17.67
2019-04-04T10:11:51.671Z,17.00
2019-04-04T10:14:22.769Z,18.73
2019-04-04T10:16:54.039Z,19.27
2019-04-04T10:19:25.079Z,19.80
2019-04-04T10:21:56.160Z,19.90
2019-04-04T10:24:27.201Z,19.43
2019-04-04T10:26:58.222Z,20.80
2019-04-04T10:29:29.278Z,21.00
2019-04-04T10:32:00.289Z,20.10
2019-04-04T10:34:31.405Z,21.83
2019-04-04T10:37:02.399Z,20.70
2019-04-04T10:39:33.440Z,20.73
2019-04-04T10:42:04.654Z,22.27
2019-04-04T10:44:37.162Z,21.43
2019-04-04T10:47:08.615Z,21.60
2019-04-04T10:49:39.742Z,21.83
2019-04-04T10:52:10.818Z,21.20
2019-04-04T10:54:41.856Z,21.40
2019-04-04T10:57:12.995Z,22.80
2019-04-04T10:59:44.258Z,22.07
2019-04-04T11:02:15.707Z,21.40
2019-04-04T11:04:46.808Z,23.37
2019-04-04T11:07:17.910Z,23.20
2019-04-04T11:09:49.057Z,21.07
2019-04-04T11:12:20.055Z,23.70
2019-04-04T11:14:51.186Z,23.17
2019-04-04T11:17:22.330Z,21.27
2019-04-04T11:19:53.370Z,21.07
2019-04-04T11:22:24.544Z,23.57
2019-04-04T11:24:55.557Z,22.10
2019-04-04T11:27:26.674Z,20.37
2019-04-04T11:29:57.909Z,21.47
2019-04-04T11:32:29.156Z,21.93
2019-04-04T11:35:00.233Z,22.00
2019-04-04T11:37:31.277Z,22.30
2019-04-04T11:40:03.439Z,22.10
2019-04-04T11:42:34.459Z,22.97
2019-04-04T11:45:05.784Z,21.67
2019-04-04T11:47:36.863Z,21.50
2019-04-04T11:50:08.798Z,22.43
2019-04-04T11:52:40.867Z,22.23
2019-04-04T11:55:12.137Z,21.20
2019-04-04T11:57:43.142Z,22.37
2019-04-04T12:00:20.033Z,21.17
2019-04-04T12:02:51.120Z,22.00
2019-04-04T12:05:22.172Z,22.60
2019-04-04T12:07:53.180Z,21.87
2019-04-04T12:10:24.308Z,22.00
2019-04-04T12:12:58.336Z,22.17
2019-04-04T12:15:28.288Z,22.07
2019-04-04T12:17:59.304Z,21.40
2019-04-04T12:20:30.395Z,22.33
2019-04-04T12:23:01.388Z,20.77
2019-04-04T12:25:32.493Z,21.07
2019-04-04T12:28:03.573Z,20.03
2019-04-04T12:30:34.603Z,20.07
2019-04-04T12:33:05.703Z,20.53
2019-04-04T12:35:36.711Z,20.17
2019-04-04T12:38:07.732Z,18.50
2019-04-04T12:40:38.841Z,22.27
2019-04-04T12:43:09.832Z,21.50
2019-04-04T12:45:40.865Z,19.00
2019-04-04T12:48:11.889Z,20.63
2019-04-04T12:50:43.004Z,21.77
2019-04-04T12:53:14.069Z,19.10
2019-04-04T12:55:45.118Z,19.07
2019-04-04T12:58:16.185Z,17.30
2019-04-04T13:00:47.207Z,19.40
2019-04-04T13:03:18.240Z,19.40
2019-04-04T13:05:49.333Z,20.33
2019-04-04T13:08:20.487Z,18.83
2019-04-04T13:10:52.735Z,19.20
2019-04-04T13:13:23.643Z,17.97
2019-04-04T13:15:54.676Z,17.50
2019-04-04T13:18:25.736Z,17.57
2019-04-04T13:20:56.854Z,17.63
2019-04-04T13:23:28.012Z,17.53
2019-04-04T13:26:01.403Z,19.77
2019-04-04T13:28:32.389Z,17.80
2019-04-04T13:31:03.425Z,16.63
2019-04-04T13:33:34.417Z,19.33
2019-04-04T13:36:05.599Z,19.80
2019-04-04T13:38:36.604Z,18.30
2019-04-04T13:41:07.735Z,18.83
2019-04-04T13:43:38.686Z,18.83
2019-04-04T13:46:11.108Z,17.93
2019-04-04T13:48:43.524Z,17.90
2019-04-04T13:51:15.300Z,17.43
2019-04-04T13:53:46.345Z,18.33
2019-04-04T13:56:17.442Z,16.60
2019-04-04T13:58:48.515Z,17.90
2019-04-04T14:01:19.536Z,17.40
2019-04-04T14:03:51.063Z,18.53
2019-04-04T14:06:22.083Z,18.63
2019-04-04T14:08:53.091Z,17.10
2019-04-04T14:11:24.209Z,17.20
2019-04-04T14:13:58.833Z,17.30
2019-04-04T14:16:29.353Z,17.93
2019-04-04T14:19:00.377Z,18.80
2019-04-04T14:21:31.404Z,18.77
2019-04-04T14:24:12.331Z,19.03
2019-04-04T14:26:36.338Z,19.83
2019-04-04T14:29:07.532Z,15.87
2019-04-04T14:31:38.546Z,16.97
2019-04-04T14:34:11.671Z,16.57
2019-04-04T14:36:42.269Z,17.13
2019-04-04T14:39:13.274Z,16.53
2019-04-04T14:41:44.362Z,15.13
2019-04-04T14:44:15.661Z,15.53
2019-04-04T14:46:46.864Z,14.70
2019-04-04T14:49:17.871Z,14.80
2019-04-04T14:51:48.947Z,14.93
2019-04-04T14:54:19.931Z,14.80
2019-04-04T14:56:50.965Z,13.80
2019-04-04T14:59:21.948Z,13.10
2019-04-04T15:01:53.047Z,14.77
2019-04-04T15:04:24.055Z,12.37
2019-04-04T15:06:55.058Z,11.97
2019-04-04T15:09:26.120Z,12.10
2019-04-04T15:11:57.095Z,11.53
2019-04-04T15:14:28.333Z,10.90
2019-04-04T15:16:59.359Z,10.50
2019-04-04T15:19:30.351Z,11.00
2019-04-04T15:22:01.379Z,9.90
2019-04-04T15:24:32.448Z,10.10
2019-04-04T15:27:03.562Z,9.53
2019-04-04T15:29:34.642Z,11.10
2019-04-04T15:32:05.960Z,9.90
2019-04-04T15:34:36.992Z,10.00
2019-04-04T15:37:08.048Z,8.90
2019-04-04T15:39:39.050Z,8.30
2019-04-04T15:42:10.069Z,9.20
2019-04-04T15:44:41.133Z,7.70
2019-04-04T15:47:12.439Z,7.60
2019-04-04T15:49:43.525Z,7.43
2019-04-04T15:52:14.519Z,7.63
2019-04-04T15:54:45.650Z,6.73
2019-04-04T15:57:16.839Z,5.70
2019-04-04T15:59:47.919Z,5.97
2019-04-04T16:02:19.151Z,5.20
2019-04-04T16:04:50.615Z,5.57
2019-04-04T16:07:21.675Z,5.00
2019-04-04T16:09:52.673Z,5.40
2019-04-04T16:12:23.670Z,5.43
2019-04-04T16:14:54.726Z,5.10
2019-04-04T16:17:25.722Z,4.43
2019-04-04T16:19:56.696Z,5.40
2019-04-04T16:22:27.704Z,4.47
2019-04-04T16:24:58.680Z,4.43
2019-04-04T16:27:29.759Z,4.20
2019-04-04T16:30:00.759Z,4.60
2019-04-04T16:32:32.817Z,4.40
2019-04-04T16:35:04.008Z,5.10
2019-04-04T16:37:35.019Z,4.67
2019-04-04T16:40:09.234Z,4.10
2019-04-04T16:42:40.349Z,4.53
2019-04-04T16:45:11.582Z,5.00
2019-04-04T16:47:42.668Z,4.47
2019-04-04T16:50:14.578Z,5.17
2019-04-04T16:52:45.751Z,3.90
2019-04-04T16:55:19.568Z,5.00
2019-04-04T16:57:50.878Z,4.13
2019-04-04T17:00:23.596Z,3.63
2019-04-04T17:02:54.919Z,3.37
2019-04-04T17:05:26.064Z,4.20
2019-04-04T17:07:57.075Z,3.00
2019-04-04T17:10:28.388Z,1.97
2019-04-04T17:12:59.789Z,2.40
2019-04-04T17:15:31.302Z,2.37
2019-04-04T17:18:02.768Z,2.17
2019-04-04T17:20:34.229Z,2.37
2019-04-04T17:23:05.597Z,3.00
2019-04-04T17:25:36.635Z,2.67
2019-04-04T17:28:09.039Z,2.73
2019-04-04T17:30:40.689Z,2.80
2019-04-04T17:33:11.841Z,1.80
2019-04-04T17:35:44.152Z,2.07
2019-04-04T17:38:16.452Z,2.50
2019-04-04T17:40:47.913Z,2.20
2019-04-04T17:43:18.951Z,2.33
2019-04-04T17:45:50.551Z,2.07
2019-04-04T17:48:22.221Z,2.50
2019-04-04T17:50:53.765Z,2.67
2019-04-04T17:53:26.047Z,2.63
2019-04-04T17:55:57.111Z,2.53
2019-04-04T17:58:29.876Z,3.13
2019-04-04T18:01:01.590Z,4.60
2019-04-04T18:03:33.043Z,4.23
2019-04-04T18:06:04.542Z,5.37
2019-04-04T18:08:35.734Z,4.03
2019-04-04T18:11:07.041Z,3.97
2019-04-04T18:13:38.179Z,5.87
2019-04-04T18:16:09.309Z,5.70
2019-04-04T18:18:40.955Z,5.77
2019-04-04T18:21:12.096Z,4.70
2019-04-04T18:23:43.343Z,5.90
2019-04-04T18:26:14.804Z,5.27
2019-04-04T18:28:45.869Z,6.00
2019-04-04T18:31:16.876Z,5.40
2019-04-04T18:33:48.251Z,5.20
2019-04-04T18:36:19.616Z,5.53
2019-04-04T18:38:50.954Z,5.30
2019-04-04T18:41:22.004Z,5.50
2019-04-04T18:43:53.095Z,5.33
2019-04-04T18:46:24.134Z,5.73
2019-04-04T18:48:55.224Z,5.07
2019-04-04T18:51:26.390Z,5.10
2019-04-04T18:53:57.461Z,6.90
2019-04-04T18:56:28.558Z,7.30
2019-04-04T18:58:59.999Z,5.20
2019-04-04T19:01:31.156Z,5.70
2019-04-04T19:04:02.166Z,5.07
2019-04-04T19:06:33.355Z,4.67
2019-04-04T19:09:14.838Z,5.20
2019-04-04T19:11:40.633Z,4.90
2019-04-04T19:14:11.624Z,4.93
2019-04-04T19:16:42.703Z,5.13
2019-04-04T19:19:13.712Z,4.70
2019-04-04T19:21:44.706Z,4.80
2019-04-04T19:24:15.764Z,4.17
2019-04-04T19:26:46.919Z,4.40
2019-04-04T19:29:19.365Z,4.20
2019-04-04T19:31:50.378Z,4.87
2019-04-04T19:34:21.374Z,4.80
2019-04-04T19:36:52.362Z,4.97
2019-04-04T19:39:23.384Z,4.87
2019-04-04T19:41:54.374Z,5.00
2019-04-04T19:44:25.403Z,4.97
2019-04-04T19:46:56.456Z,5.90
2019-04-04T19:49:27.486Z,5.53
2019-04-04T19:51:58.490Z,6.10
2019-04-04T19:54:29.572Z,5.67
2019-04-04T19:57:00.850Z,6.77
2019-04-04T19:59:31.946Z,6.40
2019-04-04T20:02:03.111Z,5.77
2019-04-04T20:04:34.389Z,6.73
2019-04-04T20:07:05.810Z,6.33
2019-04-04T20:09:37.171Z,6.40
2019-04-04T20:12:08.306Z,7.47
2019-04-04T20:14:39.346Z,6.50
2019-04-04T20:17:10.459Z,6.87
2019-04-04T20:19:41.615Z,5.87
2019-04-04T20:22:12.736Z,6.83
2019-04-04T20:24:43.777Z,5.83
2019-04-04T20:27:14.994Z,6.93
2019-04-04T20:29:46.083Z,7.40
2019-04-04T20:32:17.340Z,8.10
2019-04-04T20:34:48.478Z,7.93
2019-04-04T20:37:19.545Z,8.20
2019-04-04T20:39:50.682Z,9.90
2019-04-04T20:42:21.818Z,8.83
2019-04-04T20:44:52.921Z,9.80
2019-04-04T20:47:24.004Z,9.93
2019-04-04T20:49:55.131Z,9.73
2019-04-04T20:52:27.471Z,9.93
2019-04-04T20:54:59.025Z,10.00
2019-04-04T20:57:30.303Z,11.47
2019-04-04T21:00:01.368Z,10.97
2019-04-04T21:02:32.856Z,10.60
2019-04-04T21:05:04.262Z,10.70
2019-04-04T21:07:35.336Z,10.03
2019-04-04T21:10:07.357Z,10.40
2019-04-04T21:12:38.362Z,10.60
2019-04-04T21:15:09.647Z,10.87
2019-04-04T21:17:40.628Z,9.70
2019-04-04T21:20:11.990Z,9.63
2019-04-04T21:22:42.975Z,9.87
2019-04-04T21:25:14.249Z,10.70
2019-04-04T21:27:45.369Z,9.57
2019-04-04T21:30:16.737Z,10.80
2019-04-04T21:32:47.730Z,11.30
2019-04-04T21:35:20.088Z,10.13
2019-04-04T21:37:51.171Z,10.37
2019-04-04T21:40:22.375Z,10.10
2019-04-04T21:42:53.469Z,8.97
2019-04-04T21:45:24.514Z,11.00
2019-04-04T21:47:55.641Z,10.90
2019-04-04T21:50:26.678Z,11.33
2019-04-04T21:52:57.709Z,10.60
2019-04-04T21:55:28.733Z,9.93
2019-04-04T21:57:59.790Z,10.63
2019-04-04T22:00:46.487Z,10.50
2019-04-04T22:03:17.925Z,10.97
2019-04-04T22:05:49.047Z,11.00
2019-04-04T22:08:20.125Z,11.07
2019-04-04T22:10:51.198Z,11.60
2019-04-04T22:13:23.806Z,10.97
2019-04-04T22:15:54.976Z,10.73
2019-04-04T22:18:25.971Z,9.77
2019-04-04T22:20:56.991Z,11.10
2019-04-04T22:23:28.076Z,10.40
2019-04-04T22:25:59.287Z,9.77
2019-04-04T22:28:30.330Z,11.23
2019-04-04T22:31:01.362Z,10.13
2019-04-04T22:33:32.435Z,10.50
2019-04-04T22:36:04.713Z,10.73
2019-04-04T22:38:35.713Z,10.73
2019-04-04T22:41:06.807Z,9.30
2019-04-04T22:43:37.823Z,9.20
2019-04-04T22:46:09.415Z,9.93
2019-04-04T22:48:40.409Z,10.17
2019-04-04T22:51:11.449Z,10.50
2019-04-04T22:53:42.461Z,9.77
2019-04-04T22:56:13.554Z,9.57
2019-04-04T22:58:44.579Z,11.50
2019-04-04T23:01:15.655Z,11.20
2019-04-04T23:03:46.669Z,10.37
2019-04-04T23:06:17.691Z,10.33
2019-04-04T23:08:48.719Z,10.97
2019-04-04T23:11:19.725Z,10.90
2019-04-04T23:13:50.710Z,9.50
2019-04-04T23:16:21.717Z,10.67
2019-04-04T23:18:52.699Z,10.23
2019-04-04T23:21:23.798Z,9.40
2019-04-04T23:23:54.761Z,9.50
2019-04-04T23:26:25.819Z,9.77
2019-04-04T23:28:56.820Z,9.80
2019-04-04T23:31:28.012Z,10.00
2019-04-04T23:33:59.005Z,8.60
2019-04-04T23:36:35.070Z,8.63
2019-04-04T23:39:02.967Z,10.30
2019-04-04T23:41:35.638Z,11.20
2019-04-04T23:44:06.695Z,9.80
2019-04-04T23:46:37.719Z,10.90
2019-04-04T23:49:08.773Z,9.40
2019-04-04T23:51:39.801Z,10.20
2019-04-04T23:54:10.817Z,9.77
2019-04-04T23:56:41.817Z,9.10
2019-04-04T23:59:12.815Z,8.93
